1 juli 2022

Tijd Code Weer Temp. Zicht Plafond Wind METAR/SPECI
9:30 p.m.
V
77 °F 6¼ mi+ - 290° 290° 7 kt METAR LFMU 011930Z AUTO 29007KT CAVOK 25/07 Q1017 NOSIG
9:00 p.m.
V
79 °F 6¼ mi+ - 320° 320° 8 kt METAR LFMU 011900Z AUTO 32008KT CAVOK 26/07 Q1016 NOSIG
8:30 p.m.
V
82 °F 6¼ mi+ - 320° 320° 9 kt METAR LFMU 011830Z AUTO 32009KT CAVOK 28/06 Q1016 NOSIG
8:00 p.m.
V
82 °F 6¼ mi+ - 330° 330° 8 kt METAR LFMU 011800Z AUTO 33008KT CAVOK 28/07 Q1016 NOSIG
7:30 p.m.
V
84 °F 6¼ mi+ - 320° 320° 9 kt METAR LFMU 011730Z AUTO 32009KT 280V340 CAVOK 29/06 Q1016 NOSIG
7:00 p.m.
V
84 °F 6¼ mi+ - 320° 320° 9 kt METAR LFMU 011700Z AUTO 32009KT 290V360 CAVOK 29/06 Q1016 NOSIG
6:30 p.m.
V
84 °F 6¼ mi+ - 330° 330° 9 kt METAR LFMU 011630Z AUTO 33009KT 300V010 CAVOK 29/04 Q1016 NOSIG
6:00 p.m.
V
84 °F 6¼ mi+ - 330° 330° 9 kt METAR LFMU 011600Z AUTO 33009KT CAVOK 29/05 Q1016 NOSIG
5:30 p.m.
V
84 °F 6¼ mi+ - 310° 310° 11 kt METAR LFMU 011530Z AUTO 31011KT 280V340 CAVOK 29/06 Q1016 NOSIG
5:00 p.m.
V
84 °F 6¼ mi+ - 330° 330° 9 kt METAR LFMU 011500Z AUTO 33009KT 280V020 CAVOK 29/07 Q1016 NOSIG
4:30 p.m.
V
84 °F 6¼ mi+ - 320° 320° 10 kt METAR LFMU 011430Z AUTO 32010KT 290V360 CAVOK 29/06 Q1017 NOSIG
4:00 p.m.
V
82 °F 6¼ mi+ - 340° 340° 11 kt METAR LFMU 011400Z AUTO 34011KT 300V010 CAVOK 28/06 Q1017 NOSIG
3:30 p.m.
V
82 °F 6¼ mi+ - 350° 350° 11 kt METAR LFMU 011330Z AUTO 35011KT 290V020 CAVOK 28/06 Q1017 NOSIG
3:00 p.m.
V
81 °F 6¼ mi+ - 330° 330° 10 kt METAR LFMU 011300Z AUTO 33010KT 280V030 CAVOK 27/07 Q1017 NOSIG
2:30 p.m.
V
81 °F 6¼ mi+ - 340° 340° 10 kt METAR LFMU 011230Z AUTO 34010KT 300V010 CAVOK 27/08 Q1017 NOSIG
2:00 p.m.
V
81 °F 6¼ mi+ - 350° 350° 12 kt METAR LFMU 011200Z AUTO 35012KT 310V020 CAVOK 27/08 Q1018 NOSIG
1:30 p.m.
V
79 °F 6¼ mi+ - 330° 330° 12 kt METAR LFMU 011130Z AUTO 33012KT 300V010 CAVOK 26/07 Q1018 NOSIG
1:00 p.m.
V
77 °F 6¼ mi+ - 340° 340° 14 kt METAR LFMU 011100Z AUTO 34014KT 300V360 CAVOK 25/08 Q1018 NOSIG
12:30 p.m.
V
77 °F 6¼ mi+ - 320° 320° 15 kt METAR LFMU 011030Z AUTO 32015KT CAVOK 25/08 Q1018 NOSIG
12:00 p.m.
V
75 °F 6¼ mi+ - 330° 330° 13 kt METAR LFMU 011000Z AUTO 33013KT CAVOK 24/09 Q1018 NOSIG
11:30 a.m.
V
75 °F 6¼ mi+ - 330° 330° 15 kt METAR LFMU 010930Z AUTO 33015KT CAVOK 24/09 Q1018 NOSIG
11:00 a.m.
V
73 °F 6¼ mi+ - 340° 340° 14 kt METAR LFMU 010900Z AUTO 34014KT 310V010 CAVOK 23/08 Q1018 NOSIG
10:30 a.m.
V
73 °F 6¼ mi+ - 340° 340° 15 kt METAR LFMU 010830Z AUTO 34015KT CAVOK 23/09 Q1018 NOSIG
10:00 a.m.
V
70 °F 6¼ mi+ - 320° 320° 15 kt METAR LFMU 010800Z AUTO 32015KT CAVOK 21/09 Q1018 NOSIG
9:30 a.m.
V
68 °F 6¼ mi+ - 300° 300° 11 kt METAR LFMU 010730Z AUTO 30011KT CAVOK 20/10 Q1018 NOSIG
9:00 a.m.
V
68 °F 6¼ mi+ - 320° 320° 10 kt METAR LFMU 010700Z AUTO 32010KT CAVOK 20/10 Q1018 NOSIG
8:30 a.m.
V
66 °F 6¼ mi+ - 310° 310° 7 kt METAR LFMU 010630Z AUTO 31007KT 280V350 CAVOK 19/10 Q1018 NOSIG
8:00 a.m.
V
64 °F 6¼ mi+ - 320° 320° 7 kt METAR LFMU 010600Z AUTO 32007KT CAVOK 18/10 Q1018 NOSIG
7:30 a.m.
V
64 °F 6¼ mi+ - 320° 320° 8 kt METAR LFMU 010530Z AUTO 32008KT CAVOK 18/10 Q1018 NOSIG
7:00 a.m.
V
64 °F 6¼ mi+ - 330° 330° 9 kt METAR LFMU 010500Z AUTO 33009KT CAVOK 18/10 Q1018 NOSIG
6:30 a.m.
V
64 °F 6¼ mi+ - 340° 340° 10 kt METAR LFMU 010430Z AUTO 34010KT CAVOK 18/10 Q1018 TEMPO 28008KT
6:00 a.m.
V
63 °F 6¼ mi+ - 340° 340° 10 kt METAR LFMU 010400Z AUTO 34010KT CAVOK 17/10 Q1018 BECMG 28008KT
5:30 a.m.
V
63 °F 6¼ mi+ - 340° 340° 5 kt METAR LFMU 010330Z AUTO 34005KT CAVOK 17/10 Q1018 NOSIG
5:00 a.m.
V
64 °F 6¼ mi+ - 330° 330° 7 kt METAR LFMU 010300Z AUTO 33007KT CAVOK 18/10 Q1018 NOSIG
4:30 a.m.
V
64 °F 6¼ mi+ - 290° 290° 5 kt METAR LFMU 010230Z AUTO 29005KT CAVOK 18/10 Q1018 NOSIG
4:00 a.m.
V
66 °F 6¼ mi+ - 320° 320° 10 kt METAR LFMU 010200Z AUTO 32010KT CAVOK 19/10 Q1017
3:30 a.m.
V
66 °F 6¼ mi+ - 330° 330° 9 kt METAR LFMU 010130Z AUTO 33009KT 300V360 CAVOK 19/09 Q1017
3:00 a.m.
V
66 °F 6¼ mi+ - 330° 330° 14 kt METAR LFMU 010100Z AUTO 33014KT CAVOK 19/09 Q1017
2:30 a.m.
V
68 °F 6¼ mi+ - 330° 330° 12 kt METAR LFMU 010030Z AUTO 33012KT CAVOK 20/09 Q1017
2:00 a.m.
V
68 °F 6¼ mi+ - 310° 310° 6 kt METAR LFMU 010000Z AUTO 31006KT CAVOK 20/10 Q1017
1:30 a.m.
V
68 °F 6¼ mi+ - 310° 310° 10 kt METAR LFMU 302330Z AUTO 31010KT CAVOK 20/10 Q1017
1:00 a.m.
V
66 °F 6¼ mi+ - 300° 300° 9 kt METAR LFMU 302300Z AUTO 30009KT CAVOK 19/11 Q1017
12:30 a.m.
V
66 °F 6¼ mi+ - 310° 310° 6 kt METAR LFMU 302230Z AUTO 31006KT CAVOK 19/12 Q1017
12:00 a.m.
V
66 °F 6¼ mi+ - 280° 280° 7 kt METAR LFMU 302200Z AUTO 28007KT CAVOK 19/12 Q1016

30 juni 2022

Tijd Code Weer Temp. Zicht Plafond Wind METAR/SPECI
11:30 p.m.
V
68 °F 6¼ mi+ - 280° 280° 6 kt METAR LFMU 302130Z AUTO 28006KT CAVOK 20/12 Q1016
11:00 p.m.
V
68 °F 6¼ mi+ - 300° 300° 8 kt METAR LFMU 302100Z AUTO 30008KT CAVOK 20/12 Q1016
10:30 p.m.
V
68 °F 6¼ mi+ - 310° 310° 11 kt METAR LFMU 302030Z AUTO 31011KT CAVOK 20/11 Q1015 TEMPO SHRA FEW030CB BKN040
10:00 p.m.
V
70 °F 6¼ mi+ - 330° 330° 9 kt METAR LFMU 302000Z AUTO 33009KT CAVOK 21/11 Q1015 TEMPO SHRA FEW030CB BKN040
9:30 p.m.
V
70 °F 6¼ mi+ - 310° 310° 8 kt METAR LFMU 301930Z AUTO 31008KT CAVOK 21/13 Q1015 TEMPO SHRA FEW030CB BKN040
9:00 p.m.
V
70 °F 6¼ mi+ - 320° 320° 6 kt METAR LFMU 301900Z AUTO 32006KT CAVOK 21/13 Q1014 NOSIG
8:30 p.m.
V
72 °F 6¼ mi+ - 320° 320° 11 kt METAR LFMU 301830Z AUTO 32011KT CAVOK 22/13 Q1014 NOSIG
8:00 p.m.
V
70 °F 6¼ mi+ - 320° 320° 10 kt METAR LFMU 301800Z AUTO 32010KT CAVOK 21/13 Q1014 NOSIG
7:30 p.m.
V
72 °F 6¼ mi+ - 330° 330° 10 kt METAR LFMU 301730Z AUTO 33010KT CAVOK 22/13 Q1014 NOSIG
7:00 p.m.
V
73 °F 6¼ mi+ - 330° 330° 12 kt METAR LFMU 301700Z AUTO 33012KT CAVOK 23/13 Q1014 TEMPO 28015G25KT
6:30 p.m.
V
75 °F 6¼ mi+ - 320° 320° 11 kt METAR LFMU 301630Z AUTO 32011KT CAVOK 24/14 Q1013 TEMPO 28015G25KT
6:00 p.m.
V
75 °F 6¼ mi+ - 320° 320° 14 kt METAR LFMU 301600Z AUTO 32014KT 9999 FEW043 24/14 Q1013 TEMPO 28015G25KT
5:30 p.m.
V
77 °F 6¼ mi+ - 280° 280° 12 kt METAR LFMU 301530Z AUTO 28012KT 250V320 9999 ///TCU 25/15 Q1013 TEMPO 28015G25KT BECMG NSC
5:00 p.m.
V
75 °F 6¼ mi+ - 270° 270° 13 kt METAR LFMU 301500Z AUTO 27013KT CAVOK 24/14 Q1013 TEMPO 28015G25KT
4:30 p.m.
V
77 °F 6¼ mi+ - 270° 270° 14 kt METAR LFMU 301430Z AUTO 27014KT CAVOK 25/14 Q1013 TEMPO 28015G25KT
4:00 p.m.
V
77 °F 6¼ mi+ - 270° 270° 13 kt METAR LFMU 301400Z AUTO 27013KT 240V300 CAVOK 25/15 Q1013 TEMPO 28015G25KT
3:30 p.m.
V
79 °F 6¼ mi+ 4.900 ft 270° 270° 14 kt METAR LFMU 301330Z AUTO 27014KT 9999 OVC049 26/15 Q1013 TEMPO 28015G25KT
3:00 p.m.
V
77 °F 6¼ mi+ 4.800 ft 270° 270° 14 kt METAR LFMU 301300Z AUTO 27014KT 9999 OVC048 25/15 Q1013 TEMPO 28015G25KT
2:30 p.m.
V
77 °F 6¼ mi+ - 260° 260° 15 kt METAR LFMU 301230Z AUTO 26015KT CAVOK 25/15 Q1013 TEMPO 28015G25KT
2:00 p.m.
V
77 °F 6¼ mi+ - 270° 270° 15 kt METAR LFMU 301200Z AUTO 27015KT CAVOK 25/15 Q1013 TEMPO 28015G25KT
1:30 p.m.
V
79 °F 6¼ mi+ - 270° 270° 14 kt METAR LFMU 301130Z AUTO 27014KT CAVOK 26/16 Q1012 TEMPO 28015G25KT
1:00 p.m.
V
77 °F 6¼ mi+ - 260° 260° 13 kt METAR LFMU 301100Z AUTO 26013KT 220V280 CAVOK 25/16 Q1013 TEMPO 28015G25KT
12:30 p.m.
V
77 °F 6¼ mi+ - 260° 260° 14 kt METAR LFMU 301030Z AUTO 26014KT 230V290 CAVOK 25/16 Q1013 TEMPO 28015G25KT
12:00 p.m.
V
75 °F 6¼ mi+ - 270° 270° 12 kt METAR LFMU 301000Z AUTO 27012KT 230V290 CAVOK 24/16 Q1013 TEMPO 28015G25KT
11:30 a.m.
V
75 °F 6¼ mi+ - 270° 270° 12 kt METAR LFMU 300930Z AUTO 27012KT 240V300 CAVOK 24/16 Q1012 TEMPO 28015G25KT
11:00 a.m.
V
73 °F 6¼ mi+ - 270° 270° 12 kt METAR LFMU 300900Z AUTO 27012KT CAVOK 23/16 Q1012 NOSIG
10:30 a.m.
V
73 °F 6¼ mi+ - 270° 270° 12 kt METAR LFMU 300830Z AUTO 27012KT CAVOK 23/16 Q1012 NOSIG
10:00 a.m.
V
72 °F 6¼ mi+ - 260° 260° 11 kt METAR LFMU 300800Z AUTO 26011KT CAVOK 22/17 Q1012 NOSIG
9:30 a.m.
V
72 °F 6¼ mi+ - 280° 280° 10 kt METAR LFMU 300730Z AUTO 28010KT CAVOK 22/16 Q1012 NOSIG
9:00 a.m.
V
70 °F 6¼ mi+ - 280° 280° 9 kt METAR LFMU 300700Z AUTO 28009KT CAVOK 21/17 Q1012 NOSIG
8:30 a.m.
V
70 °F 6¼ mi+ - 280° 280° 7 kt METAR LFMU 300630Z AUTO 28007KT CAVOK 21/17 Q1012 NOSIG
8:00 a.m.
V
68 °F 6¼ mi+ - 280° 280° 6 kt METAR LFMU 300600Z AUTO 28006KT CAVOK 20/16 Q1012 NOSIG
7:30 a.m.
V
68 °F 6¼ mi+ - 280° 280° 10 kt METAR LFMU 300530Z AUTO 28010KT CAVOK 20/17 Q1012 NOSIG
7:00 a.m.
V
66 °F 6¼ mi+ - 270° 270° 11 kt METAR LFMU 300500Z AUTO 27011KT CAVOK 19/17 Q1011 NOSIG
6:30 a.m.
V
66 °F 6¼ mi+ - 270° 270° 11 kt METAR LFMU 300430Z AUTO 27011KT CAVOK 19/16 Q1011 NOSIG
6:00 a.m.
V
66 °F 6¼ mi+ - 270° 270° 12 kt METAR LFMU 300400Z AUTO 27012KT CAVOK 19/17 Q1011 NOSIG
5:30 a.m.
V
66 °F 6¼ mi+ - 270° 270° 12 kt METAR LFMU 300330Z AUTO 27012KT CAVOK 19/16 Q1011 NOSIG
5:00 a.m.
V
68 °F 6¼ mi+ - 270° 270° 12 kt METAR LFMU 300300Z AUTO 27012KT CAVOK 20/16 Q1011 NOSIG
4:30 a.m.
V
70 °F 6¼ mi+ - 270° 270° 10 kt METAR LFMU 300230Z AUTO 27010KT CAVOK 21/16 Q1011
4:00 a.m.
V
72 °F 6¼ mi+ - 030° 030° 8 kt METAR LFMU 300200Z AUTO 03008KT 270V070 9999 //////TCU 22/15 Q1010
3:30 a.m.
V
72 °F 6¼ mi+ - 020° 020° 11 kt METAR LFMU 300130Z AUTO 02011KT 350V050 9999 VCTS ///CB 22/16 Q1010
3:00 a.m.
V
73 °F 6¼ mi+ - 340° 340° 13 kt METAR LFMU 300100Z AUTO 34013KT 310V010 9999 VCTS ///CB 23/15 Q1011
2:30 a.m.
V
73 °F 6¼ mi+ - 280° 280° 13 kt METAR LFMU 300030Z AUTO 28013KT 9999 ///CB 23/16 Q1011
2:00 a.m.
V
72 °F 6¼ mi+ - 270° 270° 15 kt METAR LFMU 300000Z AUTO 27015KT CAVOK 22/16 Q1012
1:30 a.m.
V
70 °F 6¼ mi+ - 270° 270° 6 kt METAR LFMU 292330Z AUTO 27006KT 240V300 9999 FEW006 SCT170 21/19 Q1012
1:00 a.m.
V
68 °F 6¼ mi+ - 240° 240° 3 kt METAR LFMU 292300Z AUTO 24003KT CAVOK 20/18 Q1012
12:30 a.m.
V
70 °F 6¼ mi+ - Var Var 2 kt METAR LFMU 292230Z AUTO VRB02KT CAVOK 21/19 Q1011
12:00 a.m.
V
70 °F 6¼ mi+ - 020° 020° 3 kt METAR LFMU 292200Z AUTO 02003KT 350V050 CAVOK 21/20 Q1011

29 juni 2022

Tijd Code Weer Temp. Zicht Plafond Wind METAR/SPECI
11:30 p.m.
V
72 °F 6¼ mi+ - 280° 280° 3 kt METAR LFMU 292130Z AUTO 28003KT 9999 //////TCU 22/19 Q1012
11:00 p.m.
V
72 °F 6¼ mi+ - Var Var 3 kt METAR LFMU 292100Z AUTO VRB03KT CAVOK 22/20 Q1011
10:30 p.m.
V
72 °F 6¼ mi+ - Var Var 2 kt METAR LFMU 292030Z AUTO VRB02KT CAVOK 22/20 Q1011 NOSIG
10:00 p.m.
V
72 °F 6¼ mi+ - Var Var 1 kt METAR LFMU 292000Z AUTO VRB01KT CAVOK 22/20 Q1011 NOSIG
9:30 p.m.
V
73 °F 6¼ mi+ - Var Var 3 kt METAR LFMU 291930Z AUTO VRB03KT CAVOK 23/20 Q1011 NOSIG
9:00 p.m.
V
73 °F 6¼ mi+ - 210° 210° 4 kt METAR LFMU 291900Z AUTO 21004KT 190V260 CAVOK 23/21 Q1011 NOSIG
8:30 p.m.
V
75 °F 6¼ mi+ - 200° 200° 6 kt METAR LFMU 291830Z AUTO 20006KT 180V240 CAVOK 24/20 Q1011 NOSIG
8:00 p.m.
V
75 °F 6¼ mi+ - 200° 200° 7 kt METAR LFMU 291800Z AUTO 20007KT 160V230 CAVOK 24/20 Q1011 NOSIG
7:30 p.m.
V
77 °F 6¼ mi+ - 190° 190° 8 kt METAR LFMU 291730Z AUTO 19008KT 160V220 CAVOK 25/19 Q1011 NOSIG
7:00 p.m.
V
77 °F 6¼ mi+ - 190° 190° 9 kt METAR LFMU 291700Z AUTO 19009KT 150V220 CAVOK 25/18 Q1011 NOSIG
6:30 p.m.
V
79 °F 6¼ mi+ - 190° 190° 12 kt METAR LFMU 291630Z AUTO 19012KT 160V220 CAVOK 26/16 Q1011 NOSIG
6:00 p.m.
V
79 °F 6¼ mi+ - 190° 190° 12 kt METAR LFMU 291600Z AUTO 19012KT CAVOK 26/15 Q1011 NOSIG
5:30 p.m.
V
79 °F 6¼ mi+ - 190° 190° 13 kt METAR LFMU 291530Z AUTO 19013KT CAVOK 26/15 Q1011 NOSIG
5:00 p.m.
V
81 °F 6¼ mi+ - 190° 190° 15 kt METAR LFMU 291500Z AUTO 19015KT CAVOK 27/14 Q1011 NOSIG
Oudere gegevens

Installeer onze app

Gemakkelijke toegang tot al het luchtvaartweer op je mobiele telefoon en tablet.
Met veel functies die niet op de website beschikbaar zijn, zoals offline ondersteuning en een persoonlijke lijst van vliegvelden.

Met cookies volgen wij en derde partijen jouw internetgedrag binnen onze site. Als je verdergaat gaan we ervan uit dat je dit goedvindt. Meer info